METAR Formatted Surface Weather Observation
Issued by NWS

Home | Current Version | Previous Version | Text Only | Print | Product List | Glossary On
Versions: 1 2 3 4 5 6 7 8 9 10 11 12 13 14 15
000
SAUS45 KPSR 222057
MTRFHU
METAR KFHU 222056Z AUTO 34006KT 10SM CLR 18/M07 A3007 RMK AO2 SLP157
T01781067 58022 $



USA.gov is the U.S. government's official web portal to all federal, state and local government web resources and services.